createdAt,value
2022-08-02T00:01:07.137Z,101731.81
2022-08-02T00:06:12.341Z,101728.25
2022-08-02T00:11:16.059Z,101726.25
2022-08-02T00:16:19.903Z,101724.59
2022-08-02T00:21:42.438Z,101729.72
2022-08-02T00:26:46.180Z,101734.13
2022-08-02T00:31:49.898Z,101743.66
2022-08-02T00:36:55.006Z,101741.87
2022-08-02T00:41:58.778Z,101730.19
2022-08-02T00:47:02.778Z,101722.28
2022-08-02T00:52:08.756Z,101711.81
2022-08-02T00:57:12.917Z,101696.03
2022-08-02T01:02:17.243Z,101696.16
2022-08-02T01:07:22.665Z,101693.59
2022-08-02T01:12:26.345Z,101717.41
2022-08-02T01:17:37.411Z,101713.97
2022-08-02T01:23:07.678Z,101705.91
2022-08-02T01:28:29.277Z,101707.66
2022-08-02T01:33:40.062Z,101705.84
2022-08-02T01:38:47.655Z,101694.66
2022-08-02T01:43:56.763Z,101695.31
2022-08-02T01:49:04.371Z,101690.81
2022-08-02T01:54:15.472Z,101696.09
2022-08-02T01:59:23.581Z,101684.72
2022-08-02T02:04:30.095Z,101687.03
2022-08-02T02:09:50.346Z,101674.00
2022-08-02T02:14:57.056Z,101669.31
2022-08-02T02:20:02.751Z,101660.37
2022-08-02T02:25:07.778Z,101661.91
2022-08-02T02:30:17.990Z,101656.63
2022-08-02T02:35:23.027Z,101661.56
2022-08-02T02:40:28.618Z,101664.13
2022-08-02T02:45:35.768Z,101656.87
2022-08-02T02:50:40.488Z,101656.78
2022-08-02T02:56:02.550Z,101652.47
2022-08-02T03:01:56.018Z,101651.34
2022-08-02T03:06:49.373Z,101640.69
2022-08-02T03:11:54.943Z,101644.00
2022-08-02T03:17:00.079Z,101647.53
2022-08-02T03:22:03.813Z,101650.19
2022-08-02T03:27:08.062Z,101649.88
2022-08-02T03:32:13.511Z,101635.16
2022-08-02T03:37:17.931Z,101629.06
2022-08-02T03:42:23.066Z,101622.03
2022-08-02T03:47:29.421Z,101628.19
2022-08-02T03:52:34.565Z,101616.16
2022-08-02T03:57:38.939Z,101613.16
2022-08-02T04:02:44.050Z,101607.06
2022-08-02T04:08:34.266Z,101596.53
2022-08-02T04:13:13.116Z,101582.75
2022-08-02T04:18:23.605Z,101592.53
2022-08-02T04:23:29.018Z,101597.38
2022-08-02T04:28:37.364Z,101594.72
2022-08-02T04:33:42.725Z,101606.94
2022-08-02T04:38:46.444Z,101613.16
2022-08-02T04:43:52.578Z,101607.81
2022-08-02T04:48:57.639Z,101598.22
2022-08-02T04:54:02.813Z,101593.06
2022-08-02T04:59:10.197Z,101591.38
2022-08-02T05:04:15.340Z,101592.13
2022-08-02T05:09:19.196Z,101589.66
2022-08-02T05:14:22.928Z,101581.97
2022-08-02T05:19:28.448Z,101586.22
2022-08-02T05:24:32.323Z,101584.81
2022-08-02T05:29:36.070Z,101582.16
2022-08-02T05:34:41.233Z,101578.63
2022-08-02T05:39:55.433Z,101583.00
2022-08-02T05:45:00.197Z,101592.56
2022-08-02T05:50:06.857Z,101598.81
2022-08-02T05:55:14.825Z,101619.16
2022-08-02T06:00:19.389Z,101625.09
2022-08-02T06:05:28.397Z,101615.81
2022-08-02T06:10:33.327Z,101606.47
2022-08-02T06:15:42.558Z,101605.66
2022-08-02T06:22:35.080Z,101601.44
2022-08-02T06:26:25.703Z,101599.06
2022-08-02T06:31:29.912Z,101597.62
2022-08-02T06:36:43.215Z,101590.88
2022-08-02T06:41:50.403Z,101585.94
2022-08-02T06:47:11.489Z,101595.84
2022-08-02T06:52:19.241Z,101595.25
2022-08-02T06:57:23.291Z,101592.97
2022-08-02T07:02:27.063Z,101589.81
2022-08-02T07:07:32.409Z,101585.00
2022-08-02T07:12:36.539Z,101580.13
2022-08-02T07:17:40.566Z,101583.09
2022-08-02T07:22:45.636Z,101587.72
2022-08-02T07:27:49.413Z,101582.78
2022-08-02T07:32:53.099Z,101584.94
2022-08-02T07:38:02.173Z,101571.31
2022-08-02T07:43:06.630Z,101568.19
2022-08-02T07:48:11.423Z,101579.97
2022-08-02T07:53:16.532Z,101579.37
2022-08-02T07:58:20.297Z,101589.31
2022-08-02T08:03:23.978Z,101581.72
2022-08-02T08:08:29.121Z,101578.47
2022-08-02T08:13:33.002Z,101571.75
2022-08-02T08:18:36.752Z,101565.81
2022-08-02T08:23:41.784Z,101578.28
2022-08-02T08:28:45.488Z,101570.50
2022-08-02T08:33:49.159Z,101570.50
2022-08-02T08:38:54.258Z,101582.91
2022-08-02T08:44:00.085Z,101580.44
2022-08-02T08:49:10.314Z,101583.19
2022-08-02T08:54:17.970Z,101592.97
2022-08-02T08:59:21.772Z,101581.59
2022-08-02T09:04:25.544Z,101589.56
2022-08-02T09:09:30.624Z,101585.28
2022-08-02T09:14:34.513Z,101577.47
2022-08-02T09:19:38.326Z,101562.63
2022-08-02T09:24:52.270Z,101562.69
2022-08-02T09:30:12.770Z,101569.72
2022-08-02T09:36:05.174Z,101568.91
2022-08-02T09:40:58.281Z,101576.81
2022-08-02T09:46:10.995Z,101585.63
2022-08-02T09:51:17.780Z,101593.56
2022-08-02T09:56:35.439Z,101591.75
2022-08-02T10:01:40.293Z,101579.28
2022-08-02T10:06:54.083Z,101579.97
2022-08-02T10:12:00.678Z,101579.69
2022-08-02T10:17:05.952Z,101584.62
2022-08-02T10:22:12.282Z,101569.75
2022-08-02T10:27:20.048Z,101566.56
2022-08-02T10:32:29.674Z,101567.16
2022-08-02T10:37:36.564Z,101570.16
2022-08-02T10:42:49.115Z,101566.84
2022-08-02T10:48:01.269Z,101571.41
2022-08-02T10:53:24.899Z,101571.75
2022-08-02T10:58:32.694Z,101558.50
2022-08-02T11:03:40.057Z,101558.56
2022-08-02T11:08:44.250Z,101560.00
2022-08-02T11:14:07.109Z,101554.69
2022-08-02T11:19:11.899Z,101562.19
2022-08-02T11:24:27.694Z,101554.72
2022-08-02T11:29:38.485Z,101550.81
2022-08-02T11:34:44.084Z,101557.34
2022-08-02T11:39:51.788Z,101557.12
2022-08-02T11:44:57.316Z,101561.88
2022-08-02T11:50:08.042Z,101549.00
2022-08-02T11:55:12.455Z,101539.56
2022-08-02T12:00:19.502Z,101538.22
2022-08-02T12:05:44.789Z,101549.19
2022-08-02T12:10:49.871Z,101537.69
2022-08-02T12:16:14.951Z,101532.91
2022-08-02T12:21:23.741Z,101528.37
2022-08-02T12:26:27.494Z,101534.25
2022-08-02T12:31:56.084Z,101529.69
2022-08-02T12:37:04.089Z,101535.09
2022-08-02T12:42:10.141Z,101540.97
2022-08-02T12:47:15.563Z,101531.38
2022-08-02T12:52:21.088Z,101539.31
2022-08-02T12:57:25.162Z,101524.03
2022-08-02T13:02:31.783Z,101528.69
2022-08-02T13:07:35.563Z,101514.97
2022-08-02T13:12:41.435Z,101507.41
2022-08-02T13:17:46.625Z,101511.31
2022-08-02T13:22:51.201Z,101501.22
2022-08-02T13:27:57.207Z,101481.25
2022-08-02T13:33:02.273Z,101485.41
2022-08-02T13:38:06.650Z,101481.25
2022-08-02T13:43:10.376Z,101477.28
2022-08-02T13:48:17.102Z,101468.19
2022-08-02T13:53:24.408Z,101483.63
2022-08-02T13:58:28.118Z,101468.06
2022-08-02T14:04:07.540Z,101466.25
2022-08-02T14:08:56.877Z,101457.34
2022-08-02T14:14:00.690Z,101449.44
2022-08-02T14:19:05.867Z,101436.84
2022-08-02T14:24:20.876Z,101434.50
2022-08-02T14:29:24.612Z,101425.38
2022-08-02T14:34:30.257Z,101432.75
2022-08-02T14:39:43.449Z,101426.31
2022-08-02T14:44:57.699Z,101423.81
2022-08-02T14:50:02.900Z,101414.56
2022-08-02T14:55:07.322Z,101419.34
2022-08-02T15:00:12.332Z,101427.25
2022-08-02T15:05:17.682Z,101412.47
2022-08-02T15:10:22.287Z,101400.72
2022-08-02T15:15:26.190Z,101398.59
2022-08-02T15:20:32.093Z,101400.84
2022-08-02T15:25:41.491Z,101391.94
2022-08-02T15:30:45.772Z,101393.09
2022-08-02T15:35:51.225Z,101398.44
2022-08-02T15:40:55.228Z,101381.31
2022-08-02T15:45:59.289Z,101381.22
2022-08-02T15:51:04.502Z,101378.69
2022-08-02T15:56:12.775Z,101382.19
2022-08-02T16:01:16.932Z,101381.38
2022-08-02T16:06:22.089Z,101385.16
2022-08-02T16:11:29.375Z,101377.62
2022-08-02T16:16:34.976Z,101370.59
2022-08-02T16:21:40.446Z,101372.56
2022-08-02T16:26:44.445Z,101366.50
2022-08-02T16:31:48.441Z,101356.66
2022-08-02T16:36:53.837Z,101362.16
2022-08-02T16:41:57.668Z,101348.06
2022-08-02T16:47:02.136Z,101350.00
2022-08-02T16:52:07.699Z,101347.66
2022-08-02T16:57:14.613Z,101350.72
2022-08-02T17:02:19.955Z,101354.50
2022-08-02T17:08:07.352Z,101349.38
2022-08-02T17:12:54.689Z,101354.75
2022-08-02T17:18:01.115Z,101354.41
2022-08-02T17:23:06.386Z,101347.88
2022-08-02T17:28:10.237Z,101344.53
2022-08-02T17:33:14.094Z,101342.06
2022-08-02T17:38:26.588Z,101346.13
2022-08-02T17:43:31.180Z,101350.06
2022-08-02T17:48:50.322Z,101352.63
2022-08-02T17:54:00.922Z,101352.47
2022-08-02T17:59:12.430Z,101353.06
2022-08-02T18:04:27.511Z,101351.63
2022-08-02T18:09:33.202Z,101345.53
2022-08-02T18:14:38.324Z,101347.94
2022-08-02T18:19:57.326Z,101347.25
2022-08-02T18:25:09.816Z,101355.94
2022-08-02T18:30:14.160Z,101363.94
2022-08-02T18:35:25.452Z,101363.47
2022-08-02T18:40:34.406Z,101358.34
2022-08-02T18:46:05.502Z,101363.19
2022-08-02T18:51:02.012Z,101360.75
2022-08-02T18:56:07.772Z,101368.03
2022-08-02T19:01:14.780Z,101366.53
2022-08-02T19:06:27.647Z,101369.44
2022-08-02T19:11:35.213Z,101370.56
2022-08-02T19:16:39.770Z,101368.13
2022-08-02T19:22:17.977Z,101370.16
2022-08-02T19:27:14.126Z,101380.06
2022-08-02T19:32:42.722Z,101383.00
2022-08-02T19:37:43.591Z,101377.84
2022-08-02T19:44:21.980Z,101386.88
2022-08-02T19:48:24.159Z,101396.81
2022-08-02T19:53:46.619Z,101395.22
2022-08-02T19:58:55.688Z,101404.16
2022-08-02T20:04:01.814Z,101399.03
2022-08-02T20:09:06.363Z,101393.81
2022-08-02T20:14:11.417Z,101393.03
2022-08-02T20:19:17.160Z,101397.53
2022-08-02T20:24:26.574Z,101396.72
2022-08-02T20:29:43.232Z,101403.81
2022-08-02T20:34:53.262Z,101410.03
2022-08-02T20:39:57.179Z,101410.09
2022-08-02T20:45:02.513Z,101411.03
2022-08-02T20:50:30.749Z,101411.97
2022-08-02T20:55:40.942Z,101408.44
2022-08-02T21:00:46.648Z,101406.72
2022-08-02T21:05:54.902Z,101417.31
2022-08-02T21:10:59.948Z,101418.28
2022-08-02T21:16:08.465Z,101412.13
2022-08-02T21:21:14.751Z,101405.97
2022-08-02T21:26:27.851Z,101398.94
2022-08-02T21:31:36.454Z,101406.84
2022-08-02T21:36:40.565Z,101405.97
2022-08-02T21:41:46.594Z,101406.87
2022-08-02T21:46:54.788Z,101406.00
2022-08-02T21:51:58.890Z,101396.31
2022-08-02T21:57:02.598Z,101397.22
2022-08-02T22:02:09.255Z,101402.47
2022-08-02T22:07:12.981Z,101400.72
2022-08-02T22:12:19.195Z,101398.06
2022-08-02T22:17:49.796Z,101404.25
2022-08-02T22:22:50.459Z,101400.66
2022-08-02T22:28:34.750Z,101403.28
2022-08-02T22:33:37.536Z,101407.66
2022-08-02T22:38:44.527Z,101409.38
2022-08-02T22:43:49.133Z,101411.97
2022-08-02T22:48:55.275Z,101403.16
2022-08-02T22:53:59.924Z,101398.72
2022-08-02T23:04:23.985Z,101405.72
2022-08-02T23:09:27.707Z,101412.66
2022-08-02T23:14:31.590Z,101415.25
2022-08-02T23:19:51.792Z,101408.19
2022-08-02T23:24:56.351Z,101411.62
2022-08-02T23:30:00.724Z,101412.44
2022-08-02T23:35:06.628Z,101428.25
2022-08-02T23:40:11.043Z,101423.78
2022-08-02T23:45:14.751Z,101418.50
2022-08-02T23:50:20.079Z,101407.09
2022-08-02T23:55:23.821Z,101411.44
